Terminal Aerodrome Forecast
Issued by NWS

Home | Current Version | Previous Version | Text Only | Print | Product List | Glossary On
Versions: 1 2 3 4 5 6 7 8 9 10 11 12 13
000
FTUS42 TJSJ 260535
TAFJBQ
TAF
TJBQ 260535Z 2606/2706 09010G17KT P6SM SCT022
     FM261400 07016G23KT P6SM SCT025 SCT040
     FM262300 09008KT P6SM SCT025
      AMD NOT SKED TIL 261100=

USA.gov is the U.S. government's official web portal to all federal, state and local government web resources and services.